Time;durP1;ratioP1;P1;durP2;ratioP2;P2;SDS_P1;SDS_P2;PMS_P1;PMS_P2;Temp;Humidity;BMP_temperature;BMP_pressure;BME280_temperature;BME280_humidity;BME280_pressure;Samples;Min_cycle;Max_cycle;Signal;HPM_P1;HPM_P2
2022/02/17 00:02:08;;;;;;;21.63;7.43;;;11.30;99.90;;;;;;5001453;28;20138;-61
2022/02/17 00:04:35;;;;;;;18.65;6.28;;;11.30;99.90;;;;;;4997787;28;20137;-61
2022/02/17 00:07:01;;;;;;;23.00;6.40;;;11.20;99.90;;;;;;4998626;28;20129;-61
2022/02/17 00:09:28;;;;;;;24.45;6.55;;;11.20;99.90;;;;;;5001335;28;20393;-60
2022/02/17 00:11:55;;;;;;;23.65;7.05;;;11.10;99.90;;;;;;5012187;28;20129;-61
2022/02/17 00:14:23;;;;;;;22.17;7.05;;;11.10;99.90;;;;;;5005377;28;20537;-61
2022/02/17 00:16:52;;;;;;;18.38;6.07;;;11.10;99.90;;;;;;5002630;28;20077;-61
2022/02/17 00:19:20;;;;;;;21.30;6.57;;;11.10;99.90;;;;;;4999306;28;20209;-61
2022/02/17 00:21:50;;;;;;;23.13;6.65;;;11.10;99.90;;;;;;5001000;28;20129;-61
2022/02/17 00:24:17;;;;;;;19.13;6.80;;;11.00;99.90;;;;;;5001824;28;20161;-59
2022/02/17 00:26:44;;;;;;;27.65;8.13;;;11.00;99.90;;;;;;5002810;28;20121;-60
2022/02/17 00:29:11;;;;;;;22.50;7.30;;;11.00;99.90;;;;;;5001046;28;20081;-60
2022/02/17 00:31:40;;;;;;;22.48;6.63;;;11.00;99.90;;;;;;5016119;28;20154;-61
2022/02/17 00:34:08;;;;;;;21.15;6.70;;;11.00;99.90;;;;;;5011078;28;20123;-61
2022/02/17 00:36:35;;;;;;;20.67;6.95;;;11.00;99.90;;;;;;5002565;28;20120;-61
2022/02/17 00:39:02;;;;;;;24.80;6.40;;;11.00;99.90;;;;;;5001270;28;20187;-61
2022/02/17 00:41:28;;;;;;;25.38;7.65;;;11.00;99.90;;;;;;5002547;28;20058;-61
2022/02/17 00:43:55;;;;;;;34.40;8.77;;;11.00;99.90;;;;;;5000040;28;20076;-61
2022/02/17 00:46:22;;;;;;;26.05;8.13;;;10.80;99.90;;;;;;4998709;28;20042;-61
2022/02/17 00:48:49;;;;;;;21.00;6.93;;;10.70;99.90;;;;;;5001442;28;20148;-61
2022/02/17 00:51:16;;;;;;;29.38;8.48;;;10.70;99.90;;;;;;5002306;28;20365;-61
2022/02/17 00:53:42;;;;;;;24.25;7.75;;;10.70;99.90;;;;;;5000467;28;20173;-61
2022/02/17 00:56:09;;;;;;;23.98;7.70;;;10.80;99.90;;;;;;5002127;28;20117;-60
2022/02/17 00:58:36;;;;;;;28.25;10.15;;;10.90;99.90;;;;;;5000036;28;20432;-60
2022/02/17 01:01:03;;;;;;;26.83;7.88;;;10.90;99.90;;;;;;5010611;28;20063;-61
2022/02/17 01:03:29;;;;;;;24.33;6.75;;;10.90;99.90;;;;;;5015707;28;20050;-61
2022/02/17 01:05:56;;;;;;;24.88;8.05;;;10.90;99.90;;;;;;4997313;28;20080;-61
2022/02/17 01:08:23;;;;;;;18.55;7.25;;;11.00;99.90;;;;;;5018567;28;20132;-60
2022/02/17 01:10:49;;;;;;;20.40;6.32;;;11.00;99.90;;;;;;5014051;28;20213;-61
2022/02/17 01:13:16;;;;;;;31.30;9.05;;;11.00;99.90;;;;;;5003652;28;20140;-62
2022/02/17 01:15:43;;;;;;;31.85;8.07;;;11.00;99.90;;;;;;5007935;28;20184;-61
2022/02/17 01:18:10;;;;;;;22.73;6.43;;;11.10;99.90;;;;;;5004559;28;20121;-60
2022/02/17 01:20:36;;;;;;;24.05;8.18;;;11.10;99.90;;;;;;5004668;28;20077;-61
2022/02/17 01:23:03;;;;;;;25.10;7.22;;;11.10;99.90;;;;;;5004277;28;20612;-59
2022/02/17 01:25:30;;;;;;;23.88;7.20;;;11.10;99.90;;;;;;5004530;28;20058;-60
2022/02/17 01:27:57;;;;;;;26.50;7.90;;;11.20;99.90;;;;;;5004772;28;20399;-61
2022/02/17 01:30:24;;;;;;;27.08;7.75;;;11.20;99.90;;;;;;5001538;28;20056;-61
2022/02/17 01:32:51;;;;;;;30.38;7.70;;;11.20;99.90;;;;;;5004484;28;20141;-60
2022/02/17 01:35:18;;;;;;;27.58;9.15;;;11.20;99.90;;;;;;5021867;28;20068;-64
2022/02/17 01:37:46;;;;;;;23.33;8.10;;;11.20;99.90;;;;;;5021989;28;20037;-64
2022/02/17 01:40:13;;;;;;;24.15;7.90;;;11.20;99.90;;;;;;5019849;28;20081;-63
2022/02/17 01:42:40;;;;;;;25.98;8.25;;;11.20;99.90;;;;;;5002844;28;20128;-63
2022/02/17 01:45:08;;;;;;;26.95;8.75;;;11.10;99.90;;;;;;5002184;28;20125;-62
2022/02/17 01:47:37;;;;;;;23.83;8.13;;;11.20;99.90;;;;;;5003377;28;20144;-63
2022/02/17 01:50:04;;;;;;;24.50;7.35;;;11.20;99.90;;;;;;5003462;28;20053;-63
2022/02/17 01:52:31;;;;;;;24.40;7.25;;;11.20;99.90;;;;;;5003645;28;20058;-62
2022/02/17 01:54:58;;;;;;;25.88;7.82;;;11.20;99.90;;;;;;5003166;28;20133;-62
2022/02/17 01:57:26;;;;;;;24.42;7.07;;;11.10;99.90;;;;;;5003026;28;20097;-62
2022/02/17 01:59:53;;;;;;;22.27;6.78;;;11.10;99.90;;;;;;5001030;28;20092;-62
2022/02/17 02:02:21;;;;;;;28.48;8.85;;;11.00;99.90;;;;;;5004410;28;20116;-62
2022/02/17 02:04:48;;;;;;;22.88;7.68;;;11.00;99.90;;;;;;5003612;28;20131;-64
2022/02/17 02:07:15;;;;;;;25.45;7.78;;;11.00;99.90;;;;;;5002744;28;20088;-63
2022/02/17 02:09:42;;;;;;;23.73;7.93;;;10.90;99.90;;;;;;5002194;28;20136;-62
2022/02/17 02:12:09;;;;;;;17.17;6.05;;;10.90;99.90;;;;;;5002936;28;20145;-62
2022/02/17 02:14:36;;;;;;;21.73;6.38;;;10.80;99.90;;;;;;5001891;28;20137;-62
2022/02/17 02:17:04;;;;;;;22.60;6.72;;;10.80;99.90;;;;;;5003980;28;20073;-63
2022/02/17 02:19:30;;;;;;;24.38;8.23;;;10.70;99.90;;;;;;5003528;28;20543;-62
2022/02/17 02:21:57;;;;;;;24.83;8.40;;;10.70;99.90;;;;;;5003374;28;20129;-63
2022/02/17 02:24:24;;;;;;;26.25;7.82;;;10.70;99.90;;;;;;5002943;28;20575;-62
2022/02/17 02:26:50;;;;;;;23.23;7.47;;;10.70;99.90;;;;;;5004162;28;20070;-63
2022/02/17 02:29:17;;;;;;;26.75;7.32;;;10.70;99.90;;;;;;5002073;28;20149;-62
2022/02/17 02:31:44;;;;;;;26.35;7.95;;;10.70;99.90;;;;;;5003111;28;20545;-62
2022/02/17 02:34:11;;;;;;;27.80;8.55;;;10.60;99.90;;;;;;5000745;28;20073;-62
2022/02/17 02:36:37;;;;;;;34.03;8.30;;;10.60;99.90;;;;;;5002881;28;20042;-61
2022/02/17 02:39:04;;;;;;;24.65;7.07;;;10.60;99.90;;;;;;5003387;28;20128;-62
2022/02/17 02:41:31;;;;;;;26.92;8.18;;;10.50;99.90;;;;;;5001739;28;20092;-62
2022/02/17 02:43:59;;;;;;;29.67;8.38;;;10.60;99.90;;;;;;5003834;28;20144;-62
2022/02/17 02:46:26;;;;;;;26.90;7.43;;;10.50;99.90;;;;;;5002622;28;20294;-63
2022/02/17 02:48:55;;;;;;;22.60;8.38;;;10.50;99.90;;;;;;5013580;28;20045;-62
2022/02/17 02:51:22;;;;;;;28.45;8.07;;;10.50;99.90;;;;;;5022863;28;20103;-63
2022/02/17 02:53:49;;;;;;;26.20;7.38;;;10.50;99.90;;;;;;5006881;28;20161;-62
2022/02/17 02:56:16;;;;;;;21.02;6.60;;;10.50;99.90;;;;;;5006328;28;20121;-60
2022/02/17 02:58:43;;;;;;;28.85;8.52;;;10.50;99.90;;;;;;5005707;28;20085;-62
2022/02/17 03:01:10;;;;;;;26.73;7.22;;;10.40;99.90;;;;;;5026613;28;20167;-63
2022/02/17 03:03:37;;;;;;;22.92;7.32;;;10.40;99.90;;;;;;5013497;28;20115;-62
2022/02/17 03:06:04;;;;;;;28.90;8.50;;;10.40;99.90;;;;;;5022599;28;20116;-62
2022/02/17 03:08:31;;;;;;;20.02;6.50;;;10.40;99.90;;;;;;5009456;28;20173;-62
2022/02/17 03:10:57;;;;;;;25.45;8.18;;;10.30;99.90;;;;;;5006677;28;20552;-63
2022/02/17 03:13:24;;;;;;;27.70;8.40;;;10.30;99.90;;;;;;5015050;28;20085;-61
2022/02/17 03:15:51;;;;;;;22.85;7.32;;;10.30;99.90;;;;;;5009021;28;20166;-64
2022/02/17 03:18:17;;;;;;;28.85;8.52;;;10.30;99.90;;;;;;5010238;28;20133;-62
2022/02/17 03:20:44;;;;;;;27.23;8.32;;;10.30;99.90;;;;;;5004390;28;20165;-62
2022/02/17 03:23:11;;;;;;;23.35;7.32;;;10.30;99.90;;;;;;5008862;28;20731;-62
2022/02/17 03:25:37;;;;;;;22.25;6.55;;;10.30;99.90;;;;;;5016153;28;20125;-62
2022/02/17 03:28:04;;;;;;;30.58;7.82;;;10.30;99.90;;;;;;5025280;28;20406;-62
2022/02/17 03:30:31;;;;;;;19.48;6.50;;;10.20;99.90;;;;;;5007337;28;20133;-63
2022/02/17 03:32:58;;;;;;;25.15;7.18;;;10.20;99.90;;;;;;5006018;28;20589;-63
2022/02/17 03:35:25;;;;;;;23.90;7.95;;;10.20;99.90;;;;;;5006441;28;20688;-62
2022/02/17 03:37:52;;;;;;;29.35;10.00;;;10.20;99.90;;;;;;5006311;28;20117;-62
2022/02/17 03:40:21;;;;;;;25.00;9.00;;;10.20;99.90;;;;;;5006203;28;20054;-62
2022/02/17 03:42:48;;;;;;;28.33;8.73;;;10.20;99.90;;;;;;5018103;28;20046;-62
2022/02/17 03:45:15;;;;;;;29.40;7.80;;;10.20;99.90;;;;;;5004945;28;20132;-62
2022/02/17 03:47:41;;;;;;;30.13;8.00;;;10.20;99.90;;;;;;5006539;28;20080;-62
2022/02/17 03:50:09;;;;;;;25.20;6.80;;;10.20;99.90;;;;;;5006369;28;20077;-62
2022/02/17 03:52:37;;;;;;;30.33;8.40;;;10.20;99.90;;;;;;5006336;28;20037;-63
2022/02/17 03:55:04;;;;;;;22.50;7.07;;;10.10;99.90;;;;;;5005387;28;20132;-62
2022/02/17 03:57:31;;;;;;;28.00;7.55;;;10.20;99.90;;;;;;5006384;28;20124;-62
2022/02/17 03:59:57;;;;;;;26.48;7.50;;;10.10;99.90;;;;;;5004942;28;20134;-62
2022/02/17 04:02:25;;;;;;;26.60;7.25;;;10.20;99.90;;;;;;5006477;28;20081;-62
2022/02/17 04:04:51;;;;;;;32.25;8.75;;;10.10;99.90;;;;;;5006019;28;20150;-63
2022/02/17 04:07:18;;;;;;;28.58;8.02;;;10.10;99.90;;;;;;5001962;28;20116;-62
2022/02/17 04:09:45;;;;;;;20.05;5.60;;;10.20;99.90;;;;;;5005338;28;20696;-62
2022/02/17 04:12:13;;;;;;;16.38;6.00;;;10.10;99.90;;;;;;5006453;28;20130;-61
2022/02/17 04:14:40;;;;;;;27.27;8.00;;;10.10;99.90;;;;;;5001620;28;20097;-62
2022/02/17 04:17:08;;;;;;;19.95;7.20;;;10.10;99.90;;;;;;5024136;28;20095;-62
2022/02/17 04:19:35;;;;;;;19.75;6.28;;;10.10;99.90;;;;;;5005610;28;20134;-63
2022/02/17 04:22:03;;;;;;;21.63;6.43;;;10.00;99.90;;;;;;5005424;28;20056;-62
2022/02/17 04:24:30;;;;;;;22.27;7.38;;;9.90;99.90;;;;;;5005188;28;20457;-63
2022/02/17 04:26:57;;;;;;;23.30;6.82;;;9.90;99.90;;;;;;5004711;28;20100;-63
2022/02/17 04:29:24;;;;;;;20.88;6.22;;;10.00;99.90;;;;;;5003920;28;20088;-62
2022/02/17 04:31:51;;;;;;;18.80;6.43;;;10.00;99.90;;;;;;5006248;28;20085;-62
2022/02/17 04:34:17;;;;;;;21.50;6.57;;;10.00;99.90;;;;;;5004911;28;20094;-61
2022/02/17 04:36:49;;;;;;;19.88;5.18;;;10.00;99.90;;;;;;5024313;28;20489;-62
2022/02/17 04:39:16;;;;;;;19.73;6.85;;;9.90;99.90;;;;;;5021499;28;20084;-62
2022/02/17 04:44:28;;;;;;;19.05;6.50;;;9.90;99.90;;;;;;5005690;28;20092;-62
2022/02/17 04:46:55;;;;;;;20.75;5.60;;;9.90;99.90;;;;;;5004249;28;20518;-63
2022/02/17 04:49:21;;;;;;;16.85;6.15;;;9.90;99.90;;;;;;5005011;28;20085;-63
2022/02/17 04:51:48;;;;;;;22.40;6.38;;;10.00;99.90;;;;;;5005053;28;20109;-62
2022/02/17 04:54:15;;;;;;;22.58;6.70;;;10.00;99.90;;;;;;5004680;28;20050;-62
2022/02/17 04:56:41;;;;;;;24.48;6.30;;;10.00;99.90;;;;;;5004053;28;20050;-61
2022/02/17 04:59:08;;;;;;;13.63;4.70;;;9.90;99.90;;;;;;5003693;28;20244;-62
2022/02/17 05:01:35;;;;;;;18.15;6.13;;;9.90;99.90;;;;;;5005759;28;20509;-62
2022/02/17 05:04:02;;;;;;;23.27;7.07;;;9.90;99.90;;;;;;5004635;28;20134;-62
2022/02/17 05:06:30;;;;;;;18.23;5.53;;;9.90;99.90;;;;;;5005548;28;20072;-62
2022/02/17 05:08:57;;;;;;;18.92;5.75;;;9.90;99.90;;;;;;5004226;28;20121;-63
2022/02/17 05:11:24;;;;;;;19.15;6.80;;;9.90;99.90;;;;;;5001569;28;20133;-63
2022/02/17 05:13:50;;;;;;;19.15;4.60;;;9.90;99.90;;;;;;5003318;28;20160;-62
2022/02/17 05:16:17;;;;;;;18.92;5.00;;;9.90;99.90;;;;;;5003712;28;20133;-61
2022/02/17 05:18:44;;;;;;;16.55;4.97;;;9.90;99.90;;;;;;5002645;28;20144;-62
2022/02/17 05:21:11;;;;;;;15.10;4.90;;;9.90;99.90;;;;;;5005029;28;20081;-61
2022/02/17 05:23:38;;;;;;;19.02;5.85;;;9.90;99.90;;;;;;5000664;28;20128;-62
2022/02/17 05:26:04;;;;;;;18.88;5.30;;;9.90;99.90;;;;;;5004632;28;20594;-62
2022/02/17 05:28:31;;;;;;;19.02;5.10;;;9.80;99.90;;;;;;5002471;28;20124;-62
2022/02/17 05:30:58;;;;;;;15.93;4.57;;;9.90;99.90;;;;;;5004550;28;20081;-62
2022/02/17 05:33:25;;;;;;;14.75;4.30;;;9.90;99.90;;;;;;5000758;28;20201;-62
2022/02/17 05:35:52;;;;;;;20.92;5.28;;;9.80;99.90;;;;;;4994093;28;20133;-63
2022/02/17 05:38:18;;;;;;;17.92;5.50;;;9.80;99.90;;;;;;4987970;28;20046;-62
2022/02/17 05:40:45;;;;;;;18.13;6.90;;;9.80;99.90;;;;;;5003471;28;20077;-62
2022/02/17 05:43:12;;;;;;;18.58;5.53;;;9.70;99.90;;;;;;5005305;28;20124;-61
2022/02/17 05:45:39;;;;;;;20.50;5.72;;;9.70;99.90;;;;;;5002479;28;20084;-62
2022/02/17 05:48:06;;;;;;;15.73;5.15;;;9.70;99.90;;;;;;4985879;28;20043;-63
2022/02/17 05:50:33;;;;;;;18.05;5.55;;;9.70;99.90;;;;;;4987666;28;20375;-63
2022/02/17 05:53:00;;;;;;;20.50;6.10;;;9.60;99.90;;;;;;4984584;28;20050;-63
2022/02/17 05:55:27;;;;;;;19.23;5.18;;;9.60;99.90;;;;;;4999617;28;20411;-62
2022/02/17 05:57:54;;;;;;;17.13;5.38;;;9.50;99.90;;;;;;4987381;28;20077;-62
2022/02/17 06:00:21;;;;;;;16.90;4.97;;;9.60;99.90;;;;;;4986631;28;20077;-63
2022/02/17 06:02:49;;;;;;;16.30;5.45;;;9.60;99.90;;;;;;5000566;28;20088;-65
2022/02/17 06:05:16;;;;;;;16.58;4.88;;;9.60;99.90;;;;;;4999606;28;20077;-63
2022/02/17 06:07:44;;;;;;;19.90;5.90;;;9.50;99.90;;;;;;5003531;28;20569;-62
2022/02/17 06:10:11;;;;;;;17.35;5.70;;;9.50;99.90;;;;;;4997068;28;20082;-63
2022/02/17 06:12:42;;;;;;;12.88;4.35;;;9.50;99.90;;;;;;5003994;28;20560;-63
2022/02/17 06:15:10;;;;;;;16.63;4.68;;;9.50;99.90;;;;;;4999825;28;20221;-62
2022/02/17 06:17:37;;;;;;;20.17;5.40;;;9.50;99.90;;;;;;4988314;28;20085;-62
2022/02/17 06:20:04;;;;;;;12.65;4.47;;;9.50;99.90;;;;;;4998100;28;20093;-62
2022/02/17 06:22:31;;;;;;;15.20;3.92;;;9.50;99.90;;;;;;4997395;28;20460;-62
2022/02/17 06:24:58;;;;;;;15.68;4.78;;;9.40;99.90;;;;;;4995278;28;20984;-62
2022/02/17 06:27:25;;;;;;;19.08;4.22;;;9.40;99.90;;;;;;5003238;28;20125;-62
2022/02/17 06:29:51;;;;;;;11.05;3.35;;;9.30;99.90;;;;;;5006285;28;20570;-63
2022/02/17 06:32:18;;;;;;;11.68;4.18;;;9.30;99.90;;;;;;5008506;28;20132;-62
2022/02/17 06:34:45;;;;;;;16.05;4.28;;;9.20;99.90;;;;;;4998428;28;20589;-62
2022/02/17 06:37:11;;;;;;;13.30;4.55;;;9.20;99.90;;;;;;5003279;28;20492;-62
2022/02/17 06:39:38;;;;;;;15.05;3.72;;;9.20;99.90;;;;;;5005507;28;20157;-63
2022/02/17 06:42:05;;;;;;;17.75;4.78;;;9.20;99.90;;;;;;5006054;28;20137;-62
2022/02/17 06:44:32;;;;;;;13.40;4.57;;;9.10;99.90;;;;;;5008033;28;20130;-61
2022/02/17 06:47:00;;;;;;;12.00;3.10;;;9.10;99.90;;;;;;5000177;28;20082;-62
2022/02/17 06:49:29;;;;;;;12.90;3.63;;;9.10;99.90;;;;;;5001507;28;20196;-63
2022/02/17 06:51:55;;;;;;;11.90;3.47;;;9.00;99.90;;;;;;4999473;28;20161;-62
2022/02/17 06:54:22;;;;;;;12.80;3.95;;;9.00;99.90;;;;;;5000795;28;20131;-63
2022/02/17 06:56:49;;;;;;;11.05;3.60;;;9.00;99.90;;;;;;4994633;28;20050;-63
2022/02/17 06:59:16;;;;;;;13.65;3.55;;;9.00;99.90;;;;;;4987601;28;20049;-63
2022/02/17 07:01:43;;;;;;;13.00;3.35;;;9.00;99.90;;;;;;4989283;28;20139;-61
2022/02/17 07:04:11;;;;;;;13.10;4.03;;;8.90;99.90;;;;;;4992289;28;20168;-62
2022/02/17 07:06:40;;;;;;;14.98;4.00;;;8.90;99.90;;;;;;4982102;28;20568;-62
2022/02/17 07:09:07;;;;;;;10.60;3.13;;;8.80;99.90;;;;;;4998865;28;20115;-62
2022/02/17 07:11:33;;;;;;;12.38;4.18;;;8.80;99.90;;;;;;4999883;28;20145;-62
2022/02/17 07:14:01;;;;;;;15.93;4.00;;;8.90;99.90;;;;;;4994828;28;20635;-62
2022/02/17 07:16:28;;;;;;;12.30;3.38;;;8.80;99.90;;;;;;4999951;28;20156;-62
2022/02/17 07:18:55;;;;;;;13.15;3.83;;;8.80;99.90;;;;;;4999642;28;20179;-62
2022/02/17 07:21:22;;;;;;;13.77;3.83;;;8.80;99.90;;;;;;5017845;28;20637;-61
2022/02/17 07:23:48;;;;;;;14.80;4.60;;;8.80;99.90;;;;;;4996867;28;20125;-61
2022/02/17 07:26:15;;;;;;;12.38;4.00;;;8.80;99.90;;;;;;4997104;28;20524;-63
2022/02/17 07:28:47;;;;;;;10.20;4.03;;;8.80;99.90;;;;;;4984234;28;20463;-63
2022/02/17 07:31:14;;;;;;;15.38;4.00;;;8.70;99.90;;;;;;5013798;28;20108;-61
2022/02/17 07:33:41;;;;;;;10.43;3.38;;;8.80;99.90;;;;;;4992607;28;20053;-61
2022/02/17 07:36:09;;;;;;;12.02;3.97;;;8.80;99.90;;;;;;4995942;28;20156;-62
2022/02/17 07:38:51;;;;;;;14.85;4.05;;;8.80;99.90;;;;;;4992699;28;20042;-62
2022/02/17 07:41:18;;;;;;;9.30;3.22;;;8.80;99.90;;;;;;4990967;28;20120;-62
2022/02/17 07:43:45;;;;;;;16.13;3.08;;;8.90;99.90;;;;;;5002485;28;20680;-62
2022/02/17 07:46:14;;;;;;;8.55;3.00;;;8.90;99.90;;;;;;4982594;28;20284;-62
2022/02/17 07:48:41;;;;;;;9.15;2.92;;;8.90;99.90;;;;;;4982099;28;20133;-61
2022/02/17 07:51:08;;;;;;;9.00;2.97;;;8.90;99.90;;;;;;5000003;28;20073;-60
2022/02/17 07:53:34;;;;;;;10.07;3.40;;;8.90;99.90;;;;;;4999255;28;20085;-59
2022/02/17 07:56:01;;;;;;;11.55;3.50;;;8.90;99.90;;;;;;4997834;28;20076;-60
2022/02/17 07:58:28;;;;;;;10.90;3.30;;;8.90;99.90;;;;;;4999889;28;20046;-59
2022/02/17 08:00:55;;;;;;;11.50;3.10;;;8.90;99.90;;;;;;4990816;28;20104;-60
2022/02/17 08:03:22;;;;;;;11.30;4.05;;;8.90;99.90;;;;;;4996367;28;20588;-60
2022/02/17 08:05:49;;;;;;;9.98;3.17;;;8.90;99.90;;;;;;4989427;28;20573;-60
2022/02/17 08:08:17;;;;;;;13.45;3.15;;;8.90;99.90;;;;;;4986582;28;20046;-60
2022/02/17 08:10:44;;;;;;;9.95;2.97;;;8.90;99.90;;;;;;5003871;28;20423;-60
2022/02/17 08:13:11;;;;;;;10.50;2.70;;;9.00;99.90;;;;;;4996232;28;20157;-61
2022/02/17 08:15:39;;;;;;;10.48;2.90;;;9.00;99.90;;;;;;5001670;28;20526;-60
2022/02/17 08:18:06;;;;;;;9.52;3.00;;;9.00;99.90;;;;;;5018117;28;20140;-60
2022/02/17 08:20:33;;;;;;;10.15;3.28;;;9.00;99.90;;;;;;4994472;28;20060;-60
2022/02/17 08:22:59;;;;;;;14.75;3.53;;;9.00;99.90;;;;;;4989387;28;20163;-60
2022/02/17 08:25:26;;;;;;;8.65;2.38;;;9.00;99.90;;;;;;4981808;28;20505;-60
2022/02/17 08:27:53;;;;;;;12.32;3.17;;;9.10;99.90;;;;;;4991265;28;20157;-61
2022/02/17 08:30:22;;;;;;;8.45;2.80;;;9.10;99.90;;;;;;5007422;28;20091;-60
2022/02/17 08:32:52;;;;;;;9.45;3.33;;;9.10;99.90;;;;;;5010188;28;20141;-60
2022/02/17 08:35:19;;;;;;;8.80;2.90;;;9.10;99.90;;;;;;4980088;28;20089;-61
2022/02/17 08:37:46;;;;;;;12.90;4.60;;;9.10;99.90;;;;;;4997440;28;20125;-60
2022/02/17 08:40:13;;;;;;;11.82;3.10;;;9.10;99.90;;;;;;4994043;28;20145;-59
2022/02/17 08:42:40;;;;;;;11.05;3.72;;;9.10;99.90;;;;;;4996881;28;20049;-61
2022/02/17 08:45:08;;;;;;;16.38;3.92;;;9.10;99.90;;;;;;4988718;28;20081;-60
2022/02/17 08:47:37;;;;;;;9.80;2.55;;;9.20;99.90;;;;;;4991421;28;20081;-59
2022/02/17 08:50:06;;;;;;;10.90;3.22;;;9.20;99.90;;;;;;4993949;28;20049;-60
2022/02/17 08:52:33;;;;;;;13.32;3.90;;;9.20;99.90;;;;;;4994133;28;20479;-60
2022/02/17 08:54:59;;;;;;;12.52;3.67;;;9.20;99.90;;;;;;4998796;28;20156;-60
2022/02/17 08:57:27;;;;;;;7.45;3.05;;;9.30;99.90;;;;;;5017386;28;20280;-60
2022/02/17 08:59:54;;;;;;;9.48;3.00;;;9.20;99.90;;;;;;5005558;28;20049;-60
2022/02/17 09:02:21;;;;;;;15.73;3.47;;;9.30;99.90;;;;;;4994223;28;20144;-60
2022/02/17 09:04:47;;;;;;;10.18;2.88;;;9.40;99.90;;;;;;4998531;28;20141;-60
2022/02/17 09:07:14;;;;;;;13.18;3.67;;;9.40;99.90;;;;;;4999373;28;20046;-60
2022/02/17 09:09:41;;;;;;;10.05;2.90;;;9.40;99.90;;;;;;4988982;28;20046;-61
2022/02/17 09:12:08;;;;;;;13.90;3.88;;;9.40;99.90;;;;;;4998602;28;20149;-60
2022/02/17 09:14:35;;;;;;;7.53;2.42;;;9.50;99.90;;;;;;4993390;28;20144;-60
2022/02/17 09:17:02;;;;;;;10.63;2.53;;;9.50;99.90;;;;;;5000054;28;20427;-60
2022/02/17 09:19:29;;;;;;;5.72;2.38;;;9.50;99.90;;;;;;4985411;28;20128;-60
2022/02/17 09:21:58;;;;;;;9.90;3.17;;;9.60;99.90;;;;;;4985689;28;20058;-60
2022/02/17 09:24:24;;;;;;;9.55;2.30;;;9.70;99.90;;;;;;4998025;28;20115;-60
2022/02/17 09:26:55;;;;;;;7.47;2.63;;;9.80;99.90;;;;;;5019788;28;20140;-61
2022/02/17 09:29:22;;;;;;;12.07;3.08;;;9.90;99.90;;;;;;5008317;28;20067;-61
2022/02/17 09:32:10;;;;;;;9.88;3.05;;;9.90;99.90;;;;;;4998754;28;20058;-60
2022/02/17 09:34:40;;;;;;;11.68;2.90;;;9.90;99.90;;;;;;4998099;28;20429;-61
2022/02/17 09:37:07;;;;;;;13.50;3.88;;;9.90;99.90;;;;;;4998504;28;20162;-60
2022/02/17 09:39:36;;;;;;;10.38;2.60;;;10.00;99.90;;;;;;4997724;28;20054;-61
2022/02/17 09:42:04;;;;;;;7.95;2.45;;;10.10;99.90;;;;;;5009603;28;20132;-60
2022/02/17 09:44:31;;;;;;;10.45;3.17;;;10.20;99.90;;;;;;4996047;28;20548;-61
2022/02/17 09:46:58;;;;;;;7.88;2.08;;;10.30;99.90;;;;;;4992800;28;20128;-61
2022/02/17 09:49:24;;;;;;;9.55;2.58;;;10.40;99.90;;;;;;4983375;28;20138;-60
2022/02/17 09:51:52;;;;;;;7.80;2.20;;;10.30;99.90;;;;;;4981582;28;20129;-60
2022/02/17 09:54:19;;;;;;;6.65;1.75;;;10.20;99.90;;;;;;5005666;28;20122;-60
2022/02/17 09:56:46;;;;;;;8.02;2.30;;;10.20;99.90;;;;;;5016845;28;20557;-60
2022/02/17 09:59:14;;;;;;;6.85;1.83;;;10.20;99.90;;;;;;5001415;28;20054;-61
2022/02/17 10:01:53;;;;;;;8.30;2.15;;;10.10;99.90;;;;;;4998497;28;20058;-61
2022/02/17 10:04:23;;;;;;;7.28;2.28;;;10.10;99.90;;;;;;4996591;28;20053;-61
2022/02/17 10:06:51;;;;;;;6.45;1.90;;;10.00;99.90;;;;;;4993697;28;20356;-60
2022/02/17 10:09:18;;;;;;;6.35;2.33;;;9.90;99.90;;;;;;4993370;28;20543;-61
2022/02/17 10:11:47;;;;;;;5.70;1.70;;;9.90;99.90;;;;;;4986567;28;20117;-60
2022/02/17 10:14:17;;;;;;;5.38;1.83;;;9.80;99.90;;;;;;4989615;28;20151;-61
2022/02/17 10:16:53;;;;;;;8.38;1.88;;;9.90;99.90;;;;;;4995158;28;20163;-60
2022/02/17 10:19:27;;;;;;;3.50;1.33;;;9.90;99.90;;;;;;5002102;28;20138;-61
2022/02/17 10:22:08;;;;;;;4.65;1.55;;;9.90;99.90;;;;;;5000377;28;20081;-60
2022/02/17 10:24:39;;;;;;;6.45;2.58;;;10.00;99.90;;;;;;5001347;28;20133;-61
2022/02/17 10:27:16;;;;;;;5.97;1.90;;;10.10;99.90;;;;;;5002467;28;20442;-60
2022/02/17 10:30:08;;;;;;;5.13;1.60;;;10.20;99.90;;;;;;5000978;28;20512;-62
2022/02/17 10:32:35;;;;;;;6.05;1.88;;;10.20;99.90;;;;;;5002524;28;20140;-62
2022/02/17 10:35:07;;;;;;;3.40;1.58;;;10.20;99.90;;;;;;5001663;28;20512;-62
2022/02/17 10:37:57;;;;;;;4.47;1.65;;;10.30;99.90;;;;;;5000890;28;20115;-62
2022/02/17 10:40:26;;;;;;;5.40;1.88;;;10.30;99.90;;;;;;5001251;28;20137;-62
2022/02/17 10:43:09;;;;;;;6.10;1.70;;;10.40;99.90;;;;;;5001773;28;20145;-61
2022/02/17 10:45:43;;;;;;;9.57;2.70;;;10.50;99.90;;;;;;4989526;28;20108;-61
2022/02/17 10:48:15;;;;;;;7.88;2.08;;;10.60;99.90;;;;;;4997732;28;20085;-62
2022/02/17 10:51:01;;;;;;;6.78;2.42;;;10.80;99.90;;;;;;4999770;28;20128;-61
2022/02/17 10:53:30;;;;;;;4.68;1.58;;;10.80;99.90;;;;;;4996619;28;20564;-61
2022/02/17 10:55:58;;;;;;;6.05;2.13;;;10.70;99.90;;;;;;4990640;28;20065;-62
2022/02/17 10:58:27;;;;;;;6.28;2.40;;;10.80;99.90;;;;;;4987728;28;20177;-60
2022/02/17 11:00:59;;;;;;;7.30;2.60;;;10.80;99.90;;;;;;4992782;28;20322;-62
2022/02/17 11:03:29;;;;;;;6.03;1.83;;;10.80;99.90;;;;;;4995019;28;20758;-62
2022/02/17 11:06:08;;;;;;;5.53;1.73;;;10.70;99.90;;;;;;4986113;28;20050;-62
2022/02/17 11:08:34;;;;;;;5.28;1.88;;;10.80;99.90;;;;;;4990344;28;20595;-61
2022/02/17 11:11:02;;;;;;;7.78;2.33;;;11.00;99.90;;;;;;5000877;28;20136;-62
2022/02/17 11:13:30;;;;;;;5.90;1.83;;;11.10;99.90;;;;;;4993253;28;20133;-60
2022/02/17 11:15:59;;;;;;;10.27;2.17;;;11.20;99.90;;;;;;5011630;28;20190;-62
2022/02/17 11:18:26;;;;;;;6.05;2.00;;;11.10;99.90;;;;;;4998625;28;20166;-61
2022/02/17 11:20:53;;;;;;;9.60;2.00;;;11.00;99.90;;;;;;5004478;28;20129;-61
2022/02/17 11:23:27;;;;;;;9.10;2.28;;;10.90;99.90;;;;;;5008930;28;20156;-60
2022/02/17 11:25:53;;;;;;;6.82;1.95;;;10.80;99.90;;;;;;4991977;28;20129;-61
2022/02/17 11:28:26;;;;;;;5.07;1.70;;;10.60;99.90;;;;;;4992784;28;20046;-58
2022/02/17 11:30:57;;;;;;;5.57;1.65;;;10.70;99.90;;;;;;5007042;28;20060;-62
2022/02/17 11:33:31;;;;;;;5.43;1.50;;;10.80;99.90;;;;;;5001297;28;20484;-61
2022/02/17 11:36:19;;;;;;;5.78;2.10;;;10.90;99.90;;;;;;4995067;28;20140;-62
2022/02/17 11:38:50;;;;;;;3.75;1.20;;;10.90;99.90;;;;;;4990192;28;20077;-60
2022/02/17 11:41:20;;;;;;;7.95;1.60;;;11.00;99.90;;;;;;4992738;28;20058;-61
2022/02/17 11:43:49;;;;;;;4.50;1.65;;;11.20;99.90;;;;;;4991297;28;20180;-61
2022/02/17 11:46:36;;;;;;;7.05;1.80;;;11.30;99.90;;;;;;4998579;28;20054;-61
2022/02/17 11:49:03;;;;;;;3.78;1.33;;;11.30;99.90;;;;;;4991911;28;20132;-61
2022/02/17 11:51:29;;;;;;;8.23;2.17;;;11.20;99.90;;;;;;4976102;28;20140;-61
2022/02/17 11:54:28;;;;;;;5.95;1.40;;;11.20;99.90;;;;;;5004087;28;20348;-62
2022/02/17 11:56:55;;;;;;;4.43;1.27;;;11.20;99.90;;;;;;4994624;28;20185;-62
2022/02/17 11:59:32;;;;;;;6.72;1.73;;;11.30;99.90;;;;;;4988869;28;20101;-61
2022/02/17 12:02:00;;;;;;;3.95;1.60;;;11.40;99.90;;;;;;4988398;28;20129;-61
2022/02/17 12:04:44;;;;;;;5.32;1.48;;;11.60;99.90;;;;;;4999185;28;20061;-63
2022/02/17 12:07:31;;;;;;;2.83;1.15;;;11.70;99.90;;;;;;4985352;28;20576;-62
2022/02/17 12:09:58;;;;;;;3.20;1.38;;;11.80;99.90;;;;;;4986316;28;20357;-62
2022/02/17 12:12:29;;;;;;;2.90;1.27;;;12.00;99.90;;;;;;4984547;28;20075;-61
2022/02/17 12:14:58;;;;;;;5.43;2.20;;;12.10;99.90;;;;;;4990037;28;20443;-62
2022/02/17 12:17:44;;;;;;;3.88;1.52;;;12.10;99.90;;;;;;4997130;28;20053;-62
2022/02/17 12:20:16;;;;;;;6.72;1.88;;;12.40;99.90;;;;;;5005853;28;20135;-63
2022/02/17 12:22:55;;;;;;;4.65;1.92;;;12.40;99.90;;;;;;4999913;28;20335;-62
2022/02/17 12:25:29;;;;;;;2.85;1.50;;;12.70;99.90;;;;;;4993764;28;20053;-63
2022/02/17 12:28:00;;;;;;;8.25;2.00;;;12.90;99.90;;;;;;4994410;28;20058;-61
2022/02/17 12:30:36;;;;;;;4.63;2.13;;;13.00;99.20;;;;;;4992279;28;20057;-61
2022/02/17 12:33:19;;;;;;;4.93;2.03;;;13.00;99.20;;;;;;4993783;28;20148;-61
2022/02/17 12:35:51;;;;;;;5.72;1.73;;;13.20;99.50;;;;;;4991397;28;20500;-61
2022/02/17 12:38:24;;;;;;;5.68;2.08;;;13.00;98.90;;;;;;4999931;28;20050;-63
2022/02/17 12:40:51;;;;;;;5.82;1.63;;;12.90;99.90;;;;;;4997440;28;20137;-61
2022/02/17 12:43:32;;;;;;;3.55;1.40;;;13.00;99.90;;;;;;4999365;28;20276;-60
2022/02/17 12:46:00;;;;;;;3.15;1.30;;;13.10;99.90;;;;;;4998756;28;20061;-61
2022/02/17 12:48:30;;;;;;;7.05;1.67;;;13.20;99.90;;;;;;4998624;28;20129;-60
2022/02/17 12:51:31;;;;;;;3.42;1.50;;;13.30;99.90;;;;;;4999237;28;20049;-61
2022/02/17 12:54:04;;;;;;;3.78;1.75;;;13.50;98.10;;;;;;4997339;28;20247;-61